Time;durP1;ratioP1;P1;durP2;ratioP2;P2;SDS_P1;SDS_P2;PMS_P1;PMS_P2;Temp;Humidity;BMP_temperature;BMP_pressure;BME280_temperature;BME280_humidity;BME280_pressure;Samples;Min_cycle;Max_cycle;Signal;HPM_P1;HPM_P2
2023/10/25 00:00:06;;;;;;;3.90;0.80;;;;;;;13.61;100.00;93434.75;5075191;28;20489;-85
2023/10/25 00:05:54;;;;;;;1.52;0.55;;;;;;;13.97;100.00;93449.44;5076374;28;20119;-85
2023/10/25 00:11:05;;;;;;;4.95;0.95;;;;;;;14.24;100.00;93429.91;5076945;28;20040;-85
2023/10/25 00:13:31;;;;;;;3.03;0.60;;;;;;;14.08;100.00;93424.34;5078822;28;20450;-85
2023/10/25 00:15:56;;;;;;;7.43;0.63;;;;;;;14.20;100.00;93431.63;5078874;28;20028;-85
2023/10/25 00:18:22;;;;;;;3.17;0.57;;;;;;;14.16;100.00;93437.84;5062126;28;20111;-85
2023/10/25 00:20:47;;;;;;;5.90;0.73;;;;;;;14.51;100.00;93430.63;5078611;28;20035;-85
2023/10/25 00:23:12;;;;;;;4.85;0.70;;;;;;;14.62;100.00;93432.91;5080171;28;20028;-85
2023/10/25 00:25:38;;;;;;;10.25;0.60;;;;;;;14.22;100.00;93426.81;5095510;28;20028;-85
2023/10/25 00:34:48;;;;;;;6.93;0.90;;;;;;;14.16;100.00;93417.53;5079720;28;20531;-85
2023/10/25 00:37:32;;;;;;;5.45;0.70;;;;;;;14.11;100.00;93415.81;5078471;28;20083;-85
2023/10/25 00:39:58;;;;;;;6.78;0.68;;;;;;;13.92;100.00;93431.19;5078565;28;20016;-85
2023/10/25 00:42:23;;;;;;;3.42;0.50;;;;;;;14.03;100.00;93448.22;5078551;28;20028;-85
2023/10/25 00:44:49;;;;;;;4.45;0.70;;;;;;;14.49;100.00;93442.56;5078340;28;20157;-85
2023/10/25 00:47:15;;;;;;;3.13;0.70;;;;;;;14.39;100.00;93436.53;5078214;28;20032;-85
2023/10/25 00:49:40;;;;;;;3.88;0.47;;;;;;;13.87;100.00;93418.94;5078448;28;20025;-85
2023/10/25 00:52:24;;;;;;;4.05;0.70;;;;;;;13.93;100.00;93436.16;5078030;28;20442;-84
2023/10/25 00:54:50;;;;;;;6.03;0.57;;;;;;;13.81;100.00;93446.53;5079415;28;20435;-84
2023/10/25 00:57:34;;;;;;;4.28;0.75;;;;;;;13.93;100.00;93432.72;5061665;28;20115;-85
2023/10/25 01:00:00;;;;;;;3.35;0.70;;;;;;;14.02;100.00;93444.03;5096356;28;20023;-85
2023/10/25 01:02:26;;;;;;;1.88;0.40;;;;;;;14.10;100.00;93429.31;5099380;28;20337;-85
2023/10/25 01:04:52;;;;;;;14.38;0.95;;;;;;;13.70;100.00;93435.50;5081261;28;20032;-85
2023/10/25 01:07:17;;;;;;;6.25;0.95;;;;;;;13.91;100.00;93438.31;5097198;28;20051;-85
2023/10/25 01:09:43;;;;;;;7.18;0.90;;;;;;;13.99;100.00;93437.53;5097637;28;20425;-85
2023/10/25 01:12:09;;;;;;;4.60;0.50;;;;;;;13.69;100.00;93434.75;5074110;28;20036;-85
2023/10/25 01:14:34;;;;;;;5.78;0.95;;;;;;;13.72;100.00;93436.00;5091039;28;20340;-85
2023/10/25 01:17:00;;;;;;;4.03;0.57;;;;;;;13.81;100.00;93415.69;5089680;28;20050;-85
2023/10/25 01:19:25;;;;;;;6.60;0.80;;;;;;;13.42;100.00;93414.75;5086814;28;20021;-85
2023/10/25 01:21:50;;;;;;;6.18;0.65;;;;;;;13.27;100.00;93410.69;5086269;28;20024;-85
2023/10/25 01:24:16;;;;;;;6.30;0.77;;;;;;;13.33;100.00;93414.72;5063403;28;20052;-85
2023/10/25 01:26:42;;;;;;;7.35;0.90;;;;;;;13.20;100.00;93411.13;5077493;28;20028;-85
2023/10/25 01:29:07;;;;;;;4.35;0.70;;;;;;;13.15;100.00;93412.06;5060737;28;20429;-84
2023/10/25 01:31:33;;;;;;;4.10;0.50;;;;;;;13.24;100.00;93412.06;5077333;28;20345;-85
2023/10/25 01:33:59;;;;;;;4.40;0.90;;;;;;;13.08;100.00;93408.31;5077388;28;20024;-85
2023/10/25 01:36:27;;;;;;;8.13;0.93;;;;;;;13.15;100.00;93419.19;5077273;28;20023;-85
2023/10/25 01:38:53;;;;;;;4.45;0.93;;;;;;;13.28;100.00;93406.97;5077349;28;20028;-85
2023/10/25 01:41:18;;;;;;;6.72;1.15;;;;;;;13.23;100.00;93405.25;5078255;28;20024;-85
2023/10/25 01:43:44;;;;;;;10.15;0.80;;;;;;;13.27;100.00;93405.44;5077126;28;20124;-85
2023/10/25 01:46:09;;;;;;;4.40;0.88;;;;;;;13.29;100.00;93406.69;5086230;28;20035;-85
2023/10/25 01:48:53;;;;;;;3.78;1.08;;;;;;;13.41;100.00;93402.66;5097300;28;20358;-85
2023/10/25 01:51:19;;;;;;;4.18;0.50;;;;;;;13.40;100.00;93396.63;5080181;28;20032;-84
2023/10/25 01:54:03;;;;;;;6.28;1.02;;;;;;;13.03;100.00;93393.47;5080624;28;20456;-85
2023/10/25 01:56:28;;;;;;;2.63;0.55;;;;;;;13.23;100.00;93401.88;5098737;28;20035;-85
2023/10/25 01:58:54;;;;;;;3.13;0.70;;;;;;;13.27;100.00;93402.81;5098359;28;20433;-85
2023/10/25 02:01:19;;;;;;;2.90;0.45;;;;;;;13.34;100.00;93389.97;5098135;28;20028;-85
2023/10/25 02:03:45;;;;;;;2.55;0.40;;;;;;;13.42;100.00;93391.06;5098541;28;20024;-84
2023/10/25 02:06:14;;;;;;;3.65;0.65;;;;;;;12.95;100.00;93387.09;5092497;28;20041;-85
2023/10/25 02:08:44;;;;;;;3.95;0.60;;;;;;;13.17;100.00;93387.31;5077781;28;20429;-84
2023/10/25 02:11:10;;;;;;;2.08;0.50;;;;;;;12.83;100.00;93392.97;5076547;28;20518;-84
2023/10/25 02:16:40;;;;;;;3.28;0.50;;;;;;;12.59;100.00;93380.97;5081978;28;20119;-84
2023/10/25 02:19:06;;;;;;;4.90;0.60;;;;;;;12.71;100.00;93387.50;5081265;28;20059;-84
2023/10/25 02:21:37;;;;;;;5.22;1.00;;;;;;;13.13;100.00;93381.91;5094235;28;20070;-84
2023/10/25 02:24:04;;;;;;;5.65;0.70;;;;;;;13.55;100.00;93373.59;5097838;28;20379;-84
2023/10/25 02:26:29;;;;;;;9.45;1.00;;;;;;;13.07;100.00;93385.75;5096672;28;20026;-85
2023/10/25 02:29:13;;;;;;;6.93;0.68;;;;;;;13.13;100.00;93379.28;5082263;28;20024;-85
2023/10/25 02:31:38;;;;;;;3.55;0.95;;;;;;;13.17;100.00;93385.47;5082265;28;20050;-84
2023/10/25 02:34:23;;;;;;;4.47;0.85;;;;;;;13.14;100.00;93378.19;5092447;28;20089;-84
2023/10/25 02:36:48;;;;;;;5.75;0.75;;;;;;;12.82;100.00;93378.28;5097596;28;20455;-84
2023/10/25 02:39:14;;;;;;;5.78;0.93;;;;;;;12.82;100.00;93395.88;5097584;28;20020;-84
2023/10/25 02:41:39;;;;;;;5.90;0.90;;;;;;;12.96;100.00;93408.94;5087759;28;20257;-84
2023/10/25 02:44:05;;;;;;;3.58;0.80;;;;;;;12.89;100.00;93398.84;5071714;28;20024;-84
2023/10/25 02:46:30;;;;;;;6.53;0.90;;;;;;;12.55;100.00;93398.44;5085455;28;20414;-84
2023/10/25 02:48:55;;;;;;;10.63;0.77;;;;;;;12.62;100.00;93400.63;5088986;28;20054;-84
2023/10/25 02:51:21;;;;;;;2.80;0.60;;;;;;;12.66;100.00;93387.66;5093107;28;20441;-84
2023/10/25 02:53:46;;;;;;;4.75;0.93;;;;;;;12.50;100.00;93387.28;5089378;28;20441;-84
2023/10/25 02:56:12;;;;;;;4.15;0.55;;;;;;;12.61;100.00;93396.44;5086642;28;20020;-85
2023/10/25 02:58:37;;;;;;;5.10;0.75;;;;;;;12.52;100.00;93390.38;5083983;28;20020;-84
2023/10/25 03:04:06;;;;;;;4.97;0.60;;;;;;;12.42;100.00;93388.78;5081293;28;20051;-84
2023/10/25 03:06:50;;;;;;;7.93;1.08;;;;;;;12.16;100.00;93389.44;5075857;28;20103;-84
2023/10/25 03:09:15;;;;;;;11.60;1.23;;;;;;;12.09;100.00;93384.59;5084912;28;20140;-85
2023/10/25 03:11:59;;;;;;;7.15;1.27;;;;;;;11.80;100.00;93393.66;5085414;28;20455;-84
2023/10/25 03:14:25;;;;;;;9.35;0.98;;;;;;;11.91;100.00;93381.09;5081748;28;20115;-84
2023/10/25 03:16:51;;;;;;;3.72;0.90;;;;;;;11.95;100.00;93387.28;5095777;28;20028;-84
2023/10/25 03:22:19;;;;;;;2.92;0.75;;;;;;;12.43;100.00;93400.84;5076688;28;20050;-84
2023/10/25 03:25:04;;;;;;;5.22;0.82;;;;;;;12.35;100.00;93396.34;5085830;28;20016;-84
2023/10/25 03:27:29;;;;;;;4.68;0.77;;;;;;;12.32;100.00;93392.44;5089317;28;20070;-84
2023/10/25 03:30:13;;;;;;;3.45;0.57;;;;;;;12.21;100.00;93399.81;5069806;28;20056;-85
2023/10/25 03:32:57;;;;;;;3.13;0.90;;;;;;;12.44;100.00;93397.13;5077371;28;20048;-84
2023/10/25 03:35:23;;;;;;;10.13;1.02;;;;;;;12.29;100.00;93383.31;5075421;28;20028;-84
2023/10/25 03:37:48;;;;;;;5.55;0.70;;;;;;;12.09;100.00;93389.84;5075313;28;20397;-84
2023/10/25 03:40:33;;;;;;;3.78;0.68;;;;;;;12.13;100.00;93395.28;5058849;28;20032;-84
2023/10/25 03:45:43;;;;;;;4.03;0.88;;;;;;;12.17;100.00;93393.59;5078632;28;20034;-84
2023/10/25 03:50:52;;;;;;;;;;;;;;;12.58;100.00;93400.44;5080934;28;20043;-85
2023/10/25 03:53:36;;;;;;;2.93;0.70;;;;;;;12.84;100.00;93394.50;5079600;28;20229;-84
2023/10/25 03:56:02;;;;;;;6.95;1.30;;;;;;;12.97;100.00;93398.09;5080456;28;20748;-85
2023/10/25 03:58:28;;;;;;;1.95;0.40;;;;;;;13.01;100.00;93385.13;5079255;28;20341;-84
2023/10/25 04:00:57;;;;;;;7.90;0.73;;;;;;;12.86;100.00;93388.97;5062459;28;20028;-84
2023/10/25 04:03:23;;;;;;;5.65;0.52;;;;;;;12.81;100.00;93399.59;5080330;28;20063;-86
2023/10/25 04:06:25;;;;;;;4.93;0.70;;;;;;;13.00;100.00;93405.38;5080637;28;20024;-83
2023/10/25 04:08:51;;;;;;;4.05;0.47;;;;;;;13.83;100.00;93404.88;5091281;28;20042;-84
2023/10/25 04:11:16;;;;;;;2.63;0.60;;;;;;;13.68;100.00;93414.78;5100268;28;20445;-85
2023/10/25 04:13:41;;;;;;;5.18;0.70;;;;;;;13.65;100.00;93404.09;5100371;28;20028;-85
2023/10/25 04:16:10;;;;;;;9.48;0.75;;;;;;;13.69;100.00;93400.53;5095940;28;20032;-86
2023/10/25 04:18:37;;;;;;;3.92;0.57;;;;;;;13.61;100.00;93414.47;5069463;28;20028;-85
2023/10/25 04:21:03;;;;;;;2.45;0.80;;;;;;;13.40;100.00;93406.38;5084547;28;20025;-85
2023/10/25 04:23:30;;;;;;;4.53;0.98;;;;;;;13.45;100.00;93410.72;5089801;28;20046;-85
2023/10/25 04:26:08;;;;;;;2.05;0.50;;;;;;;13.62;100.00;93404.72;5088423;28;20025;-85
2023/10/25 04:28:53;;;;;;;6.25;1.00;;;;;;;13.10;100.00;93409.59;5090485;28;20110;-84
2023/10/25 04:31:20;;;;;;;3.05;0.60;;;;;;;13.52;100.00;93408.44;5092959;28;20039;-85
2023/10/25 04:33:46;;;;;;;2.65;0.60;;;;;;;13.48;100.00;93412.75;5062320;28;20371;-85
2023/10/25 04:36:12;;;;;;;2.70;0.40;;;;;;;13.43;100.00;93419.72;5078168;28;20146;-85
2023/10/25 04:38:37;;;;;;;4.95;1.00;;;;;;;13.78;100.00;93429.47;5088621;28;20016;-83
2023/10/25 04:41:03;;;;;;;3.65;0.60;;;;;;;13.95;100.00;93433.97;5081803;28;20027;-84
2023/10/25 04:43:28;;;;;;;4.40;0.50;;;;;;;14.19;100.00;93422.16;5098909;28;20032;-84
2023/10/25 04:45:54;;;;;;;6.30;0.60;;;;;;;14.39;100.00;93425.22;5100054;28;20024;-84
2023/10/25 04:48:19;;;;;;;4.90;0.90;;;;;;;14.47;100.00;93427.06;5098681;28;20024;-83
2023/10/25 04:51:04;;;;;;;5.10;0.55;;;;;;;14.51;100.00;93433.25;5098660;28;20341;-83
2023/10/25 04:53:29;;;;;;;3.50;0.70;;;;;;;14.53;100.00;93425.03;5098553;28;20051;-83
2023/10/25 04:55:55;;;;;;;6.03;0.82;;;;;;;14.30;100.00;93421.84;5097733;28;20374;-83
2023/10/25 04:58:21;;;;;;;2.55;0.63;;;;;;;14.20;100.00;93421.09;5067755;28;20028;-84
2023/10/25 05:03:56;;;;;;;2.78;0.50;;;;;;;14.37;100.00;93420.25;5078318;28;20031;-84
2023/10/25 05:06:40;;;;;;;3.28;0.88;;;;;;;14.46;100.00;93424.75;5079109;28;20028;-83
2023/10/25 05:12:08;;;;;;;3.35;0.82;;;;;;;14.45;100.00;93431.88;5078023;28;20124;-84
2023/10/25 05:14:53;;;;;;;7.30;0.70;;;;;;;14.54;100.00;93440.53;5078016;28;20024;-84
2023/10/25 05:17:37;;;;;;;4.95;1.10;;;;;;;14.55;100.00;93450.00;5093933;28;20036;-83
2023/10/25 05:20:06;;;;;;;1.55;0.50;;;;;;;14.25;100.00;93444.63;5099147;28;20020;-84
2023/10/25 05:22:54;;;;;;;8.73;0.80;;;;;;;14.54;100.00;93442.38;5097606;28;20035;-84
2023/10/25 05:25:21;;;;;;;7.45;0.77;;;;;;;14.33;100.00;93434.38;5099004;28;20028;-84
2023/10/25 05:27:47;;;;;;;3.22;0.77;;;;;;;14.42;100.00;93437.78;5097770;28;20089;-84
2023/10/25 05:30:14;;;;;;;6.05;0.70;;;;;;;14.40;100.00;93447.84;5097678;28;20032;-84
2023/10/25 05:32:45;;;;;;;3.40;0.63;;;;;;;14.41;100.00;93442.25;5097965;28;20068;-84
2023/10/25 05:38:14;;;;;;;4.78;0.70;;;;;;;14.59;100.00;93463.31;5097779;28;20035;-84
2023/10/25 05:40:41;;;;;;;6.40;0.82;;;;;;;14.67;100.00;93438.78;5097442;28;20031;-84
2023/10/25 05:43:29;;;;;;;1.02;0.50;;;;;;;14.58;100.00;93451.22;5097839;28;20036;-85
2023/10/25 05:46:13;;;;;;;2.45;0.77;;;;;;;14.48;100.00;93438.38;5097571;28;20024;-84
2023/10/25 05:51:23;;;;;;;8.32;0.90;;;;;;;13.94;100.00;93445.59;5097497;28;20058;-84
2023/10/25 05:53:49;;;;;;;8.02;1.23;;;;;;;14.21;100.00;93448.19;5098491;28;20023;-84
2023/10/25 05:56:16;;;;;;;3.13;0.88;;;;;;;14.30;100.00;93448.97;5080420;28;20035;-84
2023/10/25 05:58:41;;;;;;;6.38;1.00;;;;;;;14.34;100.00;93443.81;5097138;28;20384;-84
2023/10/25 06:03:55;;;;;;;2.92;0.93;;;;;;;14.41;100.00;93459.94;5098338;28;20032;-84
2023/10/25 06:09:05;;;;;;;8.02;0.88;;;;;;;14.51;100.00;93443.81;5096039;28;20115;-84
2023/10/25 06:14:15;;;;;;;7.57;0.73;;;;;;;13.79;100.00;93461.88;5097121;28;20031;-84
2023/10/25 06:16:41;;;;;;;5.80;0.77;;;;;;;14.18;100.00;93454.84;5097076;28;20024;-84
2023/10/25 06:19:06;;;;;;;3.50;0.88;;;;;;;14.35;100.00;93469.13;5080066;28;20341;-84
2023/10/25 06:21:32;;;;;;;4.38;0.80;;;;;;;14.55;100.00;93470.28;5097840;28;20027;-84
2023/10/25 06:23:57;;;;;;;7.00;0.90;;;;;;;14.55;100.00;93475.56;5096814;28;20028;-84
2023/10/25 06:26:44;;;;;;;6.13;0.82;;;;;;;14.62;100.00;93459.25;5096935;28;20028;-84
2023/10/25 06:29:10;;;;;;;5.13;0.70;;;;;;;14.38;100.00;93468.47;5096712;28;20084;-84
2023/10/25 06:31:35;;;;;;;5.70;0.93;;;;;;;14.59;100.00;93470.44;5096497;28;20473;-84
2023/10/25 06:34:00;;;;;;;4.78;0.95;;;;;;;14.37;100.00;93465.06;5096479;28;20114;-84
2023/10/25 06:36:26;;;;;;;8.80;1.38;;;;;;;14.53;100.00;93467.97;5096494;28;20471;-84
2023/10/25 06:38:52;;;;;;;8.98;0.80;;;;;;;14.49;100.00;93467.06;5096468;28;20020;-84
2023/10/25 06:41:19;;;;;;;6.53;0.98;;;;;;;14.46;100.00;93475.59;5096286;28;20027;-84
2023/10/25 06:43:45;;;;;;;2.22;0.90;;;;;;;14.32;100.00;93472.34;5096349;28;20336;-84
2023/10/25 06:46:11;;;;;;;8.50;1.00;;;;;;;14.39;100.00;93468.16;5079302;28;20039;-84
2023/10/25 06:48:40;;;;;;;5.32;0.93;;;;;;;14.53;100.00;93469.84;5096221;28;20429;-84
2023/10/25 06:51:05;;;;;;;5.30;0.98;;;;;;;14.30;100.00;93474.53;5079488;28;20459;-84
2023/10/25 06:53:50;;;;;;;9.00;0.88;;;;;;;14.47;100.00;93481.63;5096215;28;20027;-84
2023/10/25 06:59:19;;;;;;;5.07;0.57;;;;;;;13.69;100.00;93476.88;5097386;28;20031;-84
2023/10/25 07:02:18;;;;;;;7.57;0.60;;;;;;;13.78;100.00;93487.41;5097155;28;20028;-84
2023/10/25 07:05:05;;;;;;;4.05;0.88;;;;;;;13.68;100.00;93485.06;5095939;28;20028;-85
2023/10/25 07:07:31;;;;;;;10.75;1.05;;;;;;;13.58;100.00;93494.03;5097216;28;20043;-84
2023/10/25 07:13:00;;;;;;;5.25;1.13;;;;;;;13.42;100.00;93489.19;5096999;28;20051;-84
2023/10/25 07:15:44;;;;;;;4.38;0.70;;;;;;;13.76;100.00;93494.84;5095918;28;20421;-84
2023/10/25 07:20:54;;;;;;;8.80;1.17;;;;;;;14.19;100.00;93492.53;5095606;28;20034;-84
2023/10/25 07:23:19;;;;;;;6.65;0.88;;;;;;;14.25;100.00;93481.50;5095809;28;20032;-84
2023/10/25 07:25:44;;;;;;;4.53;0.70;;;;;;;13.76;100.00;93483.53;5095756;28;20028;-84
2023/10/25 07:28:10;;;;;;;5.10;0.90;;;;;;;13.83;100.00;93489.88;5095672;28;20252;-84
2023/10/25 07:30:37;;;;;;;3.92;0.60;;;;;;;14.31;100.00;93491.88;5096084;28;20052;-84
2023/10/25 07:33:22;;;;;;;3.55;0.80;;;;;;;14.66;100.00;93492.59;5095674;28;20032;-84
2023/10/25 07:35:48;;;;;;;6.45;0.82;;;;;;;14.64;100.00;93494.78;5095605;28;20110;-84
2023/10/25 07:38:13;;;;;;;3.70;0.85;;;;;;;14.77;100.00;93503.59;5096777;28;20111;-84
2023/10/25 07:40:40;;;;;;;6.32;0.90;;;;;;;14.92;100.00;93509.44;5095522;28;20339;-84
2023/10/25 07:43:06;;;;;;;5.22;0.50;;;;;;;15.11;100.00;93517.00;5095521;28;20025;-84
2023/10/25 07:45:50;;;;;;;6.32;0.90;;;;;;;15.33;100.00;93523.13;5095552;28;20039;-84
2023/10/25 07:48:16;;;;;;;6.13;1.10;;;;;;;14.81;100.00;93520.38;5078443;28;20036;-84
2023/10/25 07:50:42;;;;;;;6.95;1.23;;;;;;;14.02;100.00;93511.72;5096561;28;20336;-84
2023/10/25 07:53:07;;;;;;;5.53;0.73;;;;;;;14.79;100.00;93513.84;5078857;28;20030;-84
2023/10/25 07:55:33;;;;;;;8.70;0.93;;;;;;;14.93;100.00;93524.22;5095465;28;20348;-84
2023/10/25 07:57:58;;;;;;;4.60;0.80;;;;;;;14.68;100.00;93526.56;5095389;28;20032;-84
2023/10/25 08:00:24;;;;;;;4.22;0.90;;;;;;;14.94;100.00;93531.03;5095403;28;20032;-84
2023/10/25 08:02:49;;;;;;;6.88;1.75;;;;;;;14.52;100.00;93524.41;5095292;28;20039;-84
2023/10/25 08:05:15;;;;;;;3.03;0.85;;;;;;;14.58;100.00;93525.03;5095960;28;20103;-84
2023/10/25 08:07:42;;;;;;;3.63;0.95;;;;;;;14.54;100.00;93524.09;5095286;28;20035;-84
2023/10/25 08:10:08;;;;;;;1.63;0.70;;;;;;;14.67;100.00;93514.47;5078544;28;20097;-84
2023/10/25 08:12:34;;;;;;;4.85;1.00;;;;;;;15.15;100.00;93517.16;5095114;28;20429;-84
2023/10/25 08:15:00;;;;;;;7.50;1.02;;;;;;;14.93;100.00;93522.34;5095570;28;20040;-84
2023/10/25 08:17:44;;;;;;;10.43;1.13;;;;;;;14.66;100.00;93523.47;5095757;28;20031;-84
2023/10/25 08:20:10;;;;;;;9.15;0.93;;;;;;;14.17;100.00;93524.44;5078563;28;20055;-84
2023/10/25 08:22:55;;;;;;;8.10;1.15;;;;;;;14.75;100.00;93526.13;5095064;28;20423;-84
2023/10/25 08:25:39;;;;;;;10.77;1.70;;;;;;;15.11;100.00;93530.19;5095100;28;20032;-84
2023/10/25 08:28:04;;;;;;;8.77;1.25;;;;;;;15.34;100.00;93525.44;5094920;28;20131;-84
2023/10/25 08:30:30;;;;;;;4.65;1.10;;;;;;;15.58;100.00;93516.16;5095100;28;20114;-84
2023/10/25 08:32:55;;;;;;;7.97;0.90;;;;;;;15.33;100.00;93512.56;5098108;28;20031;-84
2023/10/25 08:35:20;;;;;;;6.57;1.05;;;;;;;15.53;100.00;93511.84;5100043;28;20031;-84
2023/10/25 08:38:05;;;;;;;7.05;0.98;;;;;;;15.90;100.00;93515.84;5099979;28;20428;-84
2023/10/25 08:40:33;;;;;;;5.30;1.08;;;;;;;15.67;100.00;93503.69;5099846;28;20059;-84
2023/10/25 08:43:18;;;;;;;7.93;1.23;;;;;;;15.82;100.00;93512.91;5098869;28;20458;-84
2023/10/25 08:46:03;;;;;;;6.45;1.38;;;;;;;15.65;100.00;93511.16;5098893;28;20073;-85
2023/10/25 08:48:28;;;;;;;12.57;1.13;;;;;;;15.21;100.00;93513.25;5099590;28;20028;-84
2023/10/25 08:50:55;;;;;;;4.57;0.80;;;;;;;15.13;100.00;93502.41;5098472;28;20344;-84
2023/10/25 08:53:43;;;;;;;3.08;0.80;;;;;;;15.28;100.00;93505.59;5098536;28;20027;-84
2023/10/25 08:56:08;;;;;;;8.32;0.98;;;;;;;15.37;100.00;93503.72;5099699;28;20082;-84
2023/10/25 09:01:18;;;;;;;5.65;0.80;;;;;;;15.73;100.00;93508.78;5099394;28;20034;-84
2023/10/25 09:03:44;;;;;;;6.63;1.10;;;;;;;15.86;100.00;93505.13;5098115;28;20031;-84
2023/10/25 09:06:11;;;;;;;6.13;0.95;;;;;;;16.20;100.00;93510.50;5098213;28;20448;-84
2023/10/25 09:08:37;;;;;;;8.50;1.20;;;;;;;16.11;100.00;93505.28;5098195;28;20028;-84
2023/10/25 09:11:08;;;;;;;9.75;1.02;;;;;;;16.21;100.00;93509.41;5098378;28;20463;-84
2023/10/25 09:13:56;;;;;;;3.03;0.93;;;;;;;15.96;100.00;93503.97;5098085;28;20035;-84
2023/10/25 09:16:42;;;;;;;6.60;1.10;;;;;;;16.00;100.00;93494.34;5098248;28;20024;-84
2023/10/25 09:19:08;;;;;;;3.45;0.73;;;;;;;16.47;100.00;93498.59;5098048;28;20051;-84
2023/10/25 09:21:52;;;;;;;6.43;1.23;;;;;;;16.19;100.00;93501.03;5097878;28;20104;-84
2023/10/25 09:24:18;;;;;;;9.48;1.20;;;;;;;16.20;100.00;93492.00;5098978;28;20024;-84
2023/10/25 09:26:43;;;;;;;3.88;1.17;;;;;;;16.71;100.00;93497.13;5097864;28;20023;-84
2023/10/25 09:29:29;;;;;;;5.22;0.85;;;;;;;17.16;100.00;93510.66;5097711;28;20465;-84
2023/10/25 09:32:05;;;;;;;7.88;0.80;;;;;;;16.90;100.00;93503.75;5081116;28;20035;-84
2023/10/25 09:34:30;;;;;;;3.78;0.90;;;;;;;17.33;100.00;93507.81;5081080;28;20032;-84
2023/10/25 09:39:40;;;;;;;6.75;0.90;;;;;;;17.14;100.00;93503.06;5097881;28;20074;-84
2023/10/25 09:42:11;;;;;;;6.63;0.90;;;;;;;17.31;100.00;93502.06;5097264;28;20340;-84
2023/10/25 09:44:50;;;;;;;8.15;1.13;;;;;;;16.66;100.00;93495.44;5097471;28;20035;-84
2023/10/25 09:50:10;;;;;;;3.78;0.65;;;;;;;17.55;98.98;93492.59;5097543;28;20085;-84
2023/10/25 09:55:41;;;;;;;6.13;1.02;;;;;;;17.90;100.00;93500.03;5097550;28;20031;-84
2023/10/25 10:01:10;;;;;;;5.05;1.20;;;;;;;18.15;100.00;93492.03;5097292;28;20059;-84
2023/10/25 10:03:57;;;;;;;3.75;0.90;;;;;;;18.12;100.00;93487.44;5097147;28;20113;-84
2023/10/25 10:06:51;;;;;;;6.18;1.58;;;;;;;17.45;100.00;93488.53;5097069;28;20028;-84
2023/10/25 10:09:37;;;;;;;4.50;0.85;;;;;;;17.01;100.00;93485.66;5096874;28;20080;-84
2023/10/25 10:12:23;;;;;;;4.75;1.10;;;;;;;17.62;100.00;93476.13;5097514;28;20024;-84
2023/10/25 10:17:51;;;;;;;2.55;0.65;;;;;;;17.39;100.00;93487.19;5097152;28;20031;-84
2023/10/25 10:23:16;;;;;;;8.93;1.17;;;;;;;17.67;100.00;93484.63;5096977;28;20353;-84
2023/10/25 10:25:50;;;;;;;8.77;1.25;;;;;;;18.47;100.00;93478.88;5096782;28;20024;-84
2023/10/25 10:28:35;;;;;;;4.65;0.82;;;;;;;18.28;100.00;93492.00;5079869;28;20036;-84
2023/10/25 10:31:20;;;;;;;5.00;1.05;;;;;;;17.93;100.00;93502.03;5096778;28;20031;-84
2023/10/25 10:36:31;;;;;;;6.80;1.00;;;;;;;18.10;100.00;93494.94;5096725;28;20074;-84
2023/10/25 10:39:13;;;;;;;5.47;1.10;;;;;;;17.90;100.00;93501.91;5097714;28;20098;-85
2023/10/25 10:41:40;;;;;;;8.93;1.00;;;;;;;18.08;100.00;93500.56;5079340;28;20032;-84
2023/10/25 10:44:05;;;;;;;7.25;1.35;;;;;;;17.98;100.00;93492.28;5096414;28;20111;-84
2023/10/25 10:46:31;;;;;;;5.90;0.82;;;;;;;18.10;100.00;93497.59;5096378;28;20024;-84
2023/10/25 10:49:00;;;;;;;2.85;0.68;;;;;;;18.44;100.00;93486.75;5096251;28;20035;-84
2023/10/25 10:51:27;;;;;;;3.17;0.82;;;;;;;18.25;100.00;93482.09;5096337;28;20046;-84
2023/10/25 10:53:53;;;;;;;8.23;1.00;;;;;;;18.47;100.00;93472.81;5095734;28;20059;-84
2023/10/25 10:56:18;;;;;;;6.88;0.85;;;;;;;18.43;100.00;93471.94;5097310;28;20056;-84
2023/10/25 10:58:44;;;;;;;7.05;1.20;;;;;;;17.70;97.45;93464.63;5096197;28;20024;-84
2023/10/25 11:01:28;;;;;;;4.20;1.13;;;;;;;17.52;89.11;93462.25;5095997;28;20122;-84
2023/10/25 11:04:15;;;;;;;5.90;0.73;;;;;;;17.26;100.00;93452.00;5097500;28;20035;-84
2023/10/25 11:06:40;;;;;;;8.43;1.10;;;;;;;17.59;100.00;93460.91;5097221;28;20491;-84
2023/10/25 11:09:08;;;;;;;3.83;1.20;;;;;;;17.52;100.00;93453.53;5095928;28;20099;-84
2023/10/25 11:11:52;;;;;;;7.68;0.90;;;;;;;16.73;100.00;93452.59;5096465;28;20031;-84
2023/10/25 11:14:17;;;;;;;2.83;0.77;;;;;;;16.72;100.00;93458.25;5096085;28;20126;-84
2023/10/25 11:19:27;;;;;;;3.20;0.88;;;;;;;16.79;100.00;93455.81;5096047;28;20171;-84
2023/10/25 11:24:57;;;;;;;5.55;0.80;;;;;;;16.78;100.00;93459.56;5095978;28;20031;-84
2023/10/25 11:27:32;;;;;;;5.90;1.08;;;;;;;17.08;100.00;93454.09;5078222;28;20177;-84
2023/10/25 11:30:00;;;;;;;5.90;0.90;;;;;;;16.63;100.00;93456.44;5095887;28;20387;-84
2023/10/25 11:32:44;;;;;;;6.18;1.05;;;;;;;16.88;100.00;93461.78;5095505;28;20028;-84
2023/10/25 11:35:41;;;;;;;5.82;1.05;;;;;;;16.87;100.00;93454.94;5076116;28;20413;-85
2023/10/25 11:38:25;;;;;;;2.13;0.80;;;;;;;16.30;100.00;93441.38;5095845;28;20445;-84
2023/10/25 11:40:50;;;;;;;5.10;1.05;;;;;;;16.53;100.00;93438.34;5096829;28;20371;-84
2023/10/25 11:46:03;;;;;;;7.43;0.93;;;;;;;16.76;100.00;93451.94;5096082;28;20039;-84
2023/10/25 11:48:28;;;;;;;7.05;0.90;;;;;;;16.85;100.00;93454.47;5096951;28;20115;-84
2023/10/25 11:50:54;;;;;;;3.75;0.70;;;;;;;16.27;100.00;93462.41;5095628;28;20419;-84
2023/10/25 11:53:19;;;;;;;12.60;1.42;;;;;;;15.95;100.00;93474.16;5082227;28;20033;-84
2023/10/25 11:55:45;;;;;;;2.42;0.55;;;;;;;16.20;100.00;93476.91;5075283;28;20020;-84
2023/10/25 11:58:29;;;;;;;6.93;0.80;;;;;;;16.27;100.00;93483.53;5075217;28;20086;-84
2023/10/25 12:00:55;;;;;;;4.07;0.65;;;;;;;15.73;100.00;93463.88;5058558;28;20059;-84
2023/10/25 12:03:20;;;;;;;5.45;0.70;;;;;;;15.83;100.00;93455.59;5075523;28;20529;-83
2023/10/25 12:05:45;;;;;;;5.25;0.90;;;;;;;15.47;100.00;93459.53;5076550;28;20028;-84
2023/10/25 12:08:11;;;;;;;7.95;0.60;;;;;;;15.74;100.00;93455.66;5082104;28;20106;-85
2023/10/25 12:10:36;;;;;;;8.85;0.70;;;;;;;15.46;100.00;93463.28;5065603;28;20032;-85
2023/10/25 12:13:02;;;;;;;4.07;0.70;;;;;;;15.37;100.00;93466.75;5079019;28;20032;-84
2023/10/25 12:15:27;;;;;;;4.53;0.70;;;;;;;15.24;100.00;93473.03;5078960;28;20361;-85
2023/10/25 12:17:52;;;;;;;4.82;1.05;;;;;;;15.28;100.00;93471.31;5062488;28;20028;-85
2023/10/25 12:20:37;;;;;;;6.60;1.02;;;;;;;15.23;100.00;93459.06;5067337;28;20027;-85
2023/10/25 12:23:05;;;;;;;2.55;0.80;;;;;;;15.29;100.00;93449.09;5081985;28;20397;-85
2023/10/25 12:25:31;;;;;;;5.95;0.93;;;;;;;15.46;100.00;93463.28;5082092;28;20040;-84
2023/10/25 12:27:56;;;;;;;3.33;0.50;;;;;;;15.37;100.00;93466.75;5082186;28;20331;-84
2023/10/25 12:30:40;;;;;;;7.43;0.63;;;;;;;15.47;100.00;93462.19;5100157;28;20035;-84
2023/10/25 12:33:06;;;;;;;2.70;0.68;;;;;;;15.57;100.00;93467.09;5098929;28;20160;-85
2023/10/25 12:35:50;;;;;;;2.60;0.68;;;;;;;15.83;100.00;93468.78;5098850;28;20027;-85
2023/10/25 12:38:16;;;;;;;4.15;0.73;;;;;;;15.43;100.00;93461.28;5099007;28;20445;-84
2023/10/25 12:40:41;;;;;;;4.45;1.02;;;;;;;15.64;100.00;93451.53;5098693;28;20059;-85
2023/10/25 12:43:26;;;;;;;4.07;0.80;;;;;;;15.71;100.00;93444.97;5098770;28;20035;-85
2023/10/25 12:45:52;;;;;;;4.10;0.90;;;;;;;15.68;100.00;93441.88;5100174;28;20047;-85
2023/10/25 12:48:36;;;;;;;8.85;1.13;;;;;;;15.54;100.00;93441.34;5099782;28;20437;-85
2023/10/25 12:51:02;;;;;;;3.05;0.85;;;;;;;15.37;100.00;93437.72;5099677;28;20030;-85
2023/10/25 12:53:27;;;;;;;4.53;0.70;;;;;;;15.50;100.00;93435.94;5098560;28;20118;-85
2023/10/25 12:55:52;;;;;;;8.60;0.93;;;;;;;15.44;100.00;93431.16;5098829;28;20023;-85
2023/10/25 12:58:18;;;;;;;3.35;0.50;;;;;;;15.47;100.00;93431.28;5098382;28;20508;-84
2023/10/25 13:00:44;;;;;;;5.28;0.73;;;;;;;15.35;100.00;93431.22;5094820;28;20020;-84
2023/10/25 13:03:09;;;;;;;4.55;1.17;;;;;;;15.46;100.00;93429.75;5084488;28;20032;-84
2023/10/25 13:08:19;;;;;;;4.82;0.60;;;;;;;15.35;100.00;93424.09;5079980;28;20086;-85